Aviation Digital Data Service (ADDS)

Output produced by METARs form (0556 UTC 28 September 2022)
found at http://www.aviationweather.gov/metar/data/
 
VTSM 280500Z 28006KT 210V330 9999 FEW020 30/24 Q1006 NOSIG
VTSM 280400Z 29007KT 240V320 9999 FEW020 29/24 Q1007 NOSIG
VTSM 280300Z 29005KT 240V320 9999 FEW020 29/24 Q1008 NOSIG
VTSM 280200Z 28005KT 210V300 9999 FEW020 28/24 Q1008 NOSIG
VTSM 280100Z 27006KT 220V330 9999 FEW020 28/24 Q1007 NOSIG
VTSM 280000Z 26005KT 210V300 9999 FEW020 27/24 Q1006 NOSIG
VTSM 272300Z 29004KT 240V330 9999 FEW020 27/24 Q1006 NOSIG
VTSM 272200Z 28004KT 220V360 9999 SCT020 27/24 Q1006 NOSIG
VTSM 271500Z 28003KT 250V310 9999 -RA FEW018TCU SCT020 27/25 Q1009 NOSIG
VTSM 271400Z VRB02KT 9999 -RA SCT020 26/25 Q1009 NOSIG
VTSM 271300Z 24004KT 240V320 6000 -RA FEW018TCU SCT020 26/25 Q1008 RERA NOSIG
VTSM 271200Z 27004KT 240V320 9999 FEW020 29/24 Q1007 NOSIG
VTSM 271100Z 27005KT 9999 -RA FEW018TCU SCT020 29/24 Q1007 NOSIG
VTSM 271000Z 28006KT 240V320 9999 -RA SCT020 30/24 Q1006 NOSIG
VTSM 270900Z 27007KT 220V330 9999 VCSH FEW018TCU SCT020 31/24 Q1006 NOSIG
VTSM 270800Z 32007KT 280V020 9999 FEW020 31/24 Q1006 NOSIG
VTSM 270700Z 27005KT 190V340 9999 FEW020 32/24 Q1007 NOSIG
VTSM 270600Z 28007KT 230V360 9999 FEW020 31/24 Q1008 NOSIG
VTSM 270500Z 25007KT 190V330 9999 FEW020 31/24 Q1009 NOSIG
TAF VTSM 280500Z 2806/2906 30008KT 9999 SCT020 
     TEMPO 2806/2815 30015G25KT 4000 TSRA FEW016CB SCT018 BKN100